Terminal Aerodrome Forecast
Issued by NWS

Home | Current Version | Previous Version | Graphics & Text | Print | Product List | Glossary On
Versions: 1 2 3 4 5 6 7 8 9 10 11 12 13 14 15 16 17 18 19 20 21 22 23 24 25 26 27 28
587
FTUS43 KBIS 212331
TAFMOT
TAF
KMOT 212331Z 2200/2224 02011KT P6SM BKN080 OVC110
     FM220300 03006KT P6SM OVC100
     FM221000 04005KT P6SM SCT090 BKN140
     FM221400 06010KT P6SM SCT100 BKN120
     FM221800 07014G20KT P6SM BKN120=

USA.gov is the U.S. government's official web portal to all federal, state and local government web resources and services.